createdAt,value
2022-10-14T00:01:11.387Z,21.15
2022-10-14T00:03:40.002Z,20.65
2022-10-14T00:06:10.830Z,22.35
2022-10-14T00:08:38.480Z,23.33
2022-10-14T00:11:10.044Z,21.33
2022-10-14T00:13:38.150Z,20.67
2022-10-14T00:16:07.989Z,20.55
2022-10-14T00:18:35.566Z,20.73
2022-10-14T00:21:03.405Z,19.55
2022-10-14T00:23:32.569Z,22.17
2022-10-14T00:26:00.146Z,23.85
2022-10-14T00:28:31.462Z,18.95
2022-10-14T00:31:01.189Z,22.40
2022-10-14T00:33:30.119Z,19.70
2022-10-14T00:36:05.979Z,23.08
2022-10-14T00:38:37.691Z,22.88
2022-10-14T00:41:05.789Z,20.65
2022-10-14T00:43:54.279Z,23.15
2022-10-14T00:46:22.190Z,23.83
2022-10-14T00:48:54.907Z,23.33
2022-10-14T00:51:22.652Z,23.25
2022-10-14T00:53:53.385Z,23.63
2022-10-14T00:56:25.287Z,22.58
2022-10-14T00:58:54.156Z,22.88
2022-10-14T01:01:22.179Z,21.73
2022-10-14T01:03:49.850Z,23.65
2022-10-14T01:06:23.795Z,23.55
2022-10-14T01:09:01.653Z,23.00
2022-10-14T01:11:37.499Z,22.75
2022-10-14T01:14:16.534Z,21.65
2022-10-14T01:16:50.680Z,22.58
2022-10-14T01:19:38.263Z,20.65
2022-10-14T01:22:17.660Z,20.77
2022-10-14T01:25:01.438Z,21.83
2022-10-14T01:27:49.645Z,21.52
2022-10-14T01:30:20.482Z,21.60
2022-10-14T01:32:56.333Z,21.88
2022-10-14T01:35:37.969Z,19.58
2022-10-14T01:38:11.407Z,20.77
2022-10-14T01:40:43.628Z,23.55
2022-10-14T01:43:13.607Z,20.73
2022-10-14T01:45:43.998Z,22.27
2022-10-14T01:48:14.714Z,22.38
2022-10-14T01:50:46.264Z,21.50
2022-10-14T01:53:18.933Z,21.65
2022-10-14T01:55:48.832Z,20.35
2022-10-14T01:58:20.861Z,20.75
2022-10-14T02:00:49.969Z,21.50
2022-10-14T02:03:17.554Z,22.05
2022-10-14T02:05:50.132Z,23.60
2022-10-14T02:08:27.068Z,20.55
2022-10-14T02:11:06.391Z,23.08
2022-10-14T02:13:58.279Z,21.05
2022-10-14T02:16:37.824Z,19.98
2022-10-14T02:19:17.478Z,21.05
2022-10-14T02:21:49.215Z,21.80
2022-10-14T02:24:21.409Z,20.67
2022-10-14T02:26:50.705Z,22.38
2022-10-14T02:29:19.928Z,22.42
2022-10-14T02:31:50.259Z,20.35
2022-10-14T02:34:22.070Z,21.60
2022-10-14T02:36:51.126Z,22.75
2022-10-14T02:39:23.426Z,22.10
2022-10-14T02:41:51.315Z,21.23
2022-10-14T02:44:18.986Z,21.45
2022-10-14T02:46:49.311Z,21.73
2022-10-14T02:49:17.685Z,21.13
2022-10-14T02:51:45.339Z,22.17
2022-10-14T02:54:13.227Z,24.73
2022-10-14T02:56:42.270Z,21.83
2022-10-14T02:59:09.932Z,20.98
2022-10-14T03:01:38.967Z,24.00
2022-10-14T03:04:10.665Z,22.83
2022-10-14T03:06:38.277Z,25.55
2022-10-14T03:09:06.066Z,24.33
2022-10-14T03:11:36.467Z,22.50
2022-10-14T03:14:07.397Z,25.00
2022-10-14T03:16:35.162Z,22.98
2022-10-14T03:19:04.125Z,25.00
2022-10-14T03:21:49.002Z,23.48
2022-10-14T03:24:20.093Z,22.08
2022-10-14T03:26:52.410Z,25.20
2022-10-14T03:29:25.848Z,23.15
2022-10-14T03:32:10.810Z,23.38
2022-10-14T03:35:08.724Z,22.67
2022-10-14T03:37:37.695Z,23.10
2022-10-14T03:40:06.691Z,24.63
2022-10-14T03:42:36.078Z,24.08
2022-10-14T03:45:03.977Z,22.45
2022-10-14T03:47:32.742Z,23.70
2022-10-14T03:50:02.870Z,23.85
2022-10-14T03:52:47.475Z,24.73
2022-10-14T03:55:22.457Z,23.30
2022-10-14T03:57:51.889Z,22.67
2022-10-14T04:00:20.168Z,24.60
2022-10-14T04:02:55.889Z,25.67
2022-10-14T04:05:34.953Z,22.52
2022-10-14T04:08:10.107Z,23.95
2022-10-14T04:10:40.730Z,25.02
2022-10-14T04:13:11.218Z,24.25
2022-10-14T04:15:40.734Z,25.25
2022-10-14T04:18:17.301Z,23.30
2022-10-14T04:20:46.281Z,25.75
2022-10-14T04:23:16.890Z,26.05
2022-10-14T04:25:47.575Z,24.00
2022-10-14T04:28:15.334Z,23.42
2022-10-14T04:30:55.483Z,23.60
2022-10-14T04:33:28.162Z,24.35
2022-10-14T04:35:58.603Z,24.30
2022-10-14T04:38:32.248Z,23.85
2022-10-14T04:41:04.964Z,25.70
2022-10-14T04:43:32.650Z,25.48
2022-10-14T04:46:12.644Z,24.63
2022-10-14T04:48:40.466Z,23.92
2022-10-14T04:51:08.769Z,22.13
2022-10-14T04:53:50.485Z,25.48
2022-10-14T04:56:34.728Z,24.10
2022-10-14T04:59:04.647Z,25.13
2022-10-14T05:01:50.632Z,27.10
2022-10-14T05:04:18.662Z,27.25
2022-10-14T05:06:48.608Z,26.33
2022-10-14T05:09:20.530Z,25.77
2022-10-14T05:11:48.281Z,28.17
2022-10-14T05:14:20.710Z,29.45
2022-10-14T05:16:52.007Z,29.33
2022-10-14T05:19:26.109Z,27.40
2022-10-14T05:21:54.827Z,27.92
2022-10-14T05:24:29.292Z,28.83
2022-10-14T05:26:56.999Z,28.65
2022-10-14T05:29:25.708Z,28.30
2022-10-14T05:31:54.473Z,27.67
2022-10-14T05:34:51.910Z,25.15
2022-10-14T05:37:31.561Z,28.30
2022-10-14T05:40:01.791Z,28.52
2022-10-14T05:42:30.535Z,28.13
2022-10-14T05:44:59.820Z,27.40
2022-10-14T05:47:29.725Z,27.83
2022-10-14T05:50:03.369Z,24.40
2022-10-14T05:52:34.327Z,25.75
2022-10-14T05:55:08.835Z,27.83
2022-10-14T05:57:37.008Z,23.58
2022-10-14T06:00:07.253Z,26.73
2022-10-14T06:02:44.865Z,26.02
2022-10-14T06:05:16.283Z,25.67
2022-10-14T06:07:44.494Z,25.92
2022-10-14T06:10:13.523Z,26.83
2022-10-14T06:12:41.865Z,26.63
2022-10-14T06:15:10.126Z,25.83
2022-10-14T06:17:38.159Z,23.85
2022-10-14T06:20:06.662Z,27.10
2022-10-14T06:22:34.228Z,26.75
2022-10-14T06:25:04.442Z,27.90
2022-10-14T06:27:43.837Z,24.67
2022-10-14T06:30:13.141Z,24.30
2022-10-14T06:32:40.801Z,25.08
2022-10-14T06:35:09.145Z,25.10
2022-10-14T06:37:37.284Z,26.38
2022-10-14T06:40:05.506Z,25.67
2022-10-14T06:42:35.779Z,27.52
2022-10-14T06:45:04.235Z,27.05
2022-10-14T06:47:32.750Z,27.13
2022-10-14T06:50:01.238Z,26.92
2022-10-14T06:52:28.857Z,26.70
2022-10-14T06:54:56.405Z,27.05
2022-10-14T06:57:23.950Z,27.67
2022-10-14T06:59:52.891Z,28.75
2022-10-14T07:02:20.776Z,29.77
2022-10-14T07:04:48.705Z,25.75
2022-10-14T07:07:16.297Z,26.15
2022-10-14T07:09:43.871Z,28.80
2022-10-14T07:12:11.593Z,28.73
2022-10-14T07:14:39.305Z,24.73
2022-10-14T07:17:09.311Z,30.23
2022-10-14T07:19:36.943Z,27.83
2022-10-14T07:22:04.637Z,30.40
2022-10-14T07:24:32.420Z,27.55
2022-10-14T07:27:00.096Z,28.08
2022-10-14T07:29:27.959Z,28.98
2022-10-14T07:31:55.911Z,26.42
2022-10-14T07:34:24.776Z,28.67
2022-10-14T07:36:52.378Z,28.63
2022-10-14T07:39:20.194Z,28.13
2022-10-14T07:41:48.373Z,27.60
2022-10-14T07:44:16.857Z,26.50
2022-10-14T07:46:45.845Z,27.75
2022-10-14T07:49:16.927Z,28.52
2022-10-14T07:51:46.943Z,25.27
2022-10-14T07:54:16.655Z,26.13
2022-10-14T07:56:45.379Z,26.05
2022-10-14T07:59:13.600Z,25.88
2022-10-14T08:01:42.839Z,20.77
2022-10-14T08:04:11.901Z,25.13
2022-10-14T08:06:39.610Z,25.23
2022-10-14T08:09:10.753Z,26.52
2022-10-14T08:11:38.769Z,24.65
2022-10-14T08:14:06.907Z,24.50
2022-10-14T08:16:36.507Z,22.75
2022-10-14T08:19:12.596Z,25.58
2022-10-14T08:21:42.555Z,23.80
2022-10-14T08:24:12.202Z,22.98
2022-10-14T08:26:41.886Z,23.48
2022-10-14T08:29:12.536Z,24.30
2022-10-14T08:31:40.282Z,23.30
2022-10-14T08:34:07.930Z,24.17
2022-10-14T08:36:35.542Z,26.10
2022-10-14T08:39:03.233Z,24.50
2022-10-14T08:41:46.778Z,24.38
2022-10-14T08:44:19.866Z,23.35
2022-10-14T08:46:52.263Z,22.35
2022-10-14T08:49:25.873Z,23.17
2022-10-14T08:51:58.510Z,21.65
2022-10-14T08:54:33.298Z,22.35
2022-10-14T08:57:04.129Z,21.63
2022-10-14T08:59:35.372Z,17.83
2022-10-14T09:02:12.924Z,19.50
2022-10-14T09:04:40.679Z,18.05
2022-10-14T09:07:11.636Z,19.95
2022-10-14T09:09:42.785Z,23.77
2022-10-14T09:12:14.650Z,21.13
2022-10-14T09:14:46.929Z,20.67
2022-10-14T09:17:19.195Z,21.45
2022-10-14T09:19:52.510Z,22.00
2022-10-14T09:22:20.541Z,19.55
2022-10-14T09:24:49.186Z,20.30
2022-10-14T09:27:21.871Z,23.63
2022-10-14T09:29:52.950Z,22.35
2022-10-14T09:32:28.419Z,21.15
2022-10-14T09:34:56.966Z,21.50
2022-10-14T09:37:29.542Z,21.17
2022-10-14T09:40:00.686Z,19.75
2022-10-14T09:42:41.732Z,19.10
2022-10-14T09:45:12.902Z,23.02
2022-10-14T09:47:46.893Z,20.90
2022-10-14T09:50:23.724Z,21.33
2022-10-14T09:52:55.410Z,22.10
2022-10-14T09:55:25.124Z,19.48
2022-10-14T09:58:04.547Z,21.70
2022-10-14T10:00:35.261Z,20.15
2022-10-14T10:03:03.064Z,18.90
2022-10-14T10:05:32.352Z,19.35
2022-10-14T10:08:07.139Z,19.67
2022-10-14T10:10:35.771Z,20.95
2022-10-14T10:13:07.694Z,19.40
2022-10-14T10:15:35.365Z,18.27
2022-10-14T10:18:18.817Z,19.55
2022-10-14T10:21:02.157Z,20.90
2022-10-14T10:23:31.102Z,18.55
2022-10-14T10:26:16.014Z,16.90
2022-10-14T10:28:49.792Z,19.30
2022-10-14T10:31:43.778Z,18.77
2022-10-14T10:34:35.889Z,21.15
2022-10-14T10:37:08.558Z,26.13
2022-10-14T10:39:43.965Z,17.13
2022-10-14T10:42:21.890Z,16.05
2022-10-14T10:45:03.398Z,16.33
2022-10-14T10:47:41.048Z,16.58
2022-10-14T10:50:27.223Z,16.90
2022-10-14T10:53:19.299Z,14.98
2022-10-14T10:55:58.677Z,16.40
2022-10-14T10:58:41.557Z,15.15
2022-10-14T11:01:26.073Z,17.70
2022-10-14T11:04:04.926Z,18.77
2022-10-14T11:06:57.660Z,17.25
2022-10-14T11:09:50.702Z,17.55
2022-10-14T11:12:25.733Z,17.98
2022-10-14T11:15:21.951Z,14.30
2022-10-14T11:17:57.834Z,17.88
2022-10-14T11:20:37.148Z,19.45
2022-10-14T11:23:34.732Z,18.73
2022-10-14T11:26:12.382Z,17.27
2022-10-14T11:28:47.426Z,16.83
2022-10-14T11:31:27.833Z,17.85
2022-10-14T11:34:09.566Z,16.48
2022-10-14T11:36:45.219Z,14.68
2022-10-14T11:39:24.584Z,16.70
2022-10-14T11:42:04.953Z,15.73
2022-10-14T11:47:14.432Z,15.98
2022-10-14T11:49:48.686Z,15.93
2022-10-14T11:52:21.907Z,15.75
2022-10-14T11:54:54.639Z,12.63
2022-10-14T11:57:29.929Z,13.10
2022-10-14T12:00:03.247Z,14.27
2022-10-14T12:02:55.262Z,14.77
2022-10-14T12:05:34.616Z,14.77
2022-10-14T12:08:10.621Z,16.08
2022-10-14T12:10:43.286Z,14.93
2022-10-14T12:13:15.718Z,15.38
2022-10-14T12:15:49.861Z,12.07
2022-10-14T12:18:19.560Z,13.73
2022-10-14T12:20:55.554Z,13.02
2022-10-14T12:23:32.249Z,14.13
2022-10-14T12:26:06.185Z,13.55
2022-10-14T12:28:38.214Z,13.43
2022-10-14T12:31:35.242Z,12.30
2022-10-14T12:34:29.386Z,12.30
2022-10-14T12:36:58.512Z,12.05
2022-10-14T12:39:35.007Z,11.05
2022-10-14T12:42:10.854Z,9.68
2022-10-14T12:44:48.049Z,10.68
2022-10-14T12:47:22.554Z,9.88
2022-10-14T12:49:53.998Z,10.73
2022-10-14T12:52:28.076Z,8.77
2022-10-14T12:54:56.522Z,9.55
2022-10-14T12:57:29.541Z,10.13
2022-10-14T13:00:01.486Z,11.32
2022-10-14T13:02:33.478Z,9.63
2022-10-14T13:05:03.558Z,11.00
2022-10-14T13:07:44.415Z,8.98
2022-10-14T13:10:52.325Z,10.05
2022-10-14T13:13:52.701Z,8.88
2022-10-14T13:16:58.621Z,11.30
2022-10-14T13:19:50.241Z,10.82
2022-10-14T13:22:39.985Z,10.70
2022-10-14T13:25:21.430Z,11.32
2022-10-14T13:28:06.887Z,12.13
2022-10-14T13:30:40.864Z,10.38
2022-10-14T13:33:22.055Z,13.52
2022-10-14T13:36:06.534Z,11.90
2022-10-14T13:38:35.866Z,11.65
2022-10-14T13:41:05.964Z,10.93
2022-10-14T13:43:39.185Z,9.63
2022-10-14T13:46:13.144Z,11.07
2022-10-14T13:48:47.972Z,10.13
2022-10-14T13:51:38.722Z,10.07
2022-10-14T13:54:15.164Z,10.48
2022-10-14T13:56:44.935Z,11.60
2022-10-14T13:59:43.171Z,11.50
2022-10-14T14:02:15.473Z,10.65
2022-10-14T14:04:51.503Z,10.40
2022-10-14T14:08:08.414Z,11.75
2022-10-14T14:10:11.795Z,10.63
2022-10-14T14:12:44.180Z,9.07
2022-10-14T14:15:20.474Z,9.80
2022-10-14T14:17:48.148Z,9.82
2022-10-14T14:20:20.347Z,10.23
2022-10-14T14:22:50.619Z,9.48
2022-10-14T14:25:34.192Z,9.75
2022-10-14T14:28:06.954Z,9.10
2022-10-14T14:30:36.202Z,8.60
2022-10-14T14:33:06.096Z,9.38
2022-10-14T14:35:33.783Z,8.45
2022-10-14T14:38:01.706Z,9.40
2022-10-14T14:40:30.948Z,9.65
2022-10-14T14:43:00.481Z,9.05
2022-10-14T14:45:32.411Z,9.57
2022-10-14T14:48:03.889Z,9.23
2022-10-14T14:50:35.260Z,9.10
2022-10-14T14:53:08.335Z,9.50
2022-10-14T14:55:38.916Z,8.45
2022-10-14T14:58:14.593Z,8.32
2022-10-14T15:00:46.593Z,9.63
2022-10-14T15:03:14.549Z,9.65
2022-10-14T15:05:42.187Z,10.88
2022-10-14T15:08:21.513Z,9.63
2022-10-14T15:10:50.340Z,9.50
2022-10-14T15:13:33.031Z,9.18
2022-10-14T15:16:01.932Z,10.27
2022-10-14T15:18:30.405Z,9.75
2022-10-14T15:21:15.834Z,9.82
2022-10-14T15:23:47.013Z,9.98
2022-10-14T15:26:26.006Z,8.27
2022-10-14T15:29:17.047Z,9.10
2022-10-14T15:31:48.167Z,9.05
2022-10-14T15:34:18.380Z,10.00
2022-10-14T15:36:46.328Z,9.02
2022-10-14T15:39:14.945Z,9.38
2022-10-14T15:41:43.360Z,9.43
2022-10-14T15:44:10.990Z,9.20
2022-10-14T15:46:57.898Z,10.70
2022-10-14T15:49:31.248Z,10.70
2022-10-14T15:51:58.824Z,10.82
2022-10-14T15:54:27.535Z,9.85
2022-10-14T15:59:28.936Z,10.68
2022-10-14T16:01:56.709Z,10.32
2022-10-14T16:04:27.733Z,9.10
2022-10-14T16:06:58.036Z,11.10
2022-10-14T16:09:27.567Z,10.25
2022-10-14T16:11:57.953Z,10.27
2022-10-14T16:14:26.917Z,11.25
2022-10-14T16:16:54.831Z,11.25
2022-10-14T16:19:22.698Z,9.65
2022-10-14T16:21:50.871Z,10.38
2022-10-14T16:24:21.226Z,10.15
2022-10-14T16:26:49.621Z,10.90
2022-10-14T16:29:18.012Z,10.05
2022-10-14T16:31:46.738Z,10.55
2022-10-14T16:34:14.310Z,10.20
2022-10-14T16:36:42.387Z,10.13
2022-10-14T16:39:10.399Z,9.35
2022-10-14T16:41:39.677Z,9.70
2022-10-14T16:44:07.635Z,10.02
2022-10-14T16:46:52.889Z,9.88
2022-10-14T16:49:20.612Z,8.95
2022-10-14T16:51:48.113Z,9.60
2022-10-14T16:54:15.733Z,9.77
2022-10-14T16:56:53.820Z,9.98
2022-10-14T16:59:22.534Z,8.75
2022-10-14T17:01:50.996Z,9.02
2022-10-14T17:04:20.403Z,8.15
2022-10-14T17:06:51.841Z,8.48
2022-10-14T17:09:19.961Z,8.15
2022-10-14T17:11:49.931Z,8.73
2022-10-14T17:14:21.787Z,9.88
2022-10-14T17:16:52.246Z,9.15
2022-10-14T17:19:20.351Z,9.98
2022-10-14T17:21:48.687Z,9.75
2022-10-14T17:24:16.952Z,9.50
2022-10-14T17:26:45.729Z,9.20
2022-10-14T17:29:14.703Z,8.63
2022-10-14T17:31:42.334Z,8.98
2022-10-14T17:34:10.199Z,8.38
2022-10-14T17:36:38.788Z,9.20
2022-10-14T17:39:06.723Z,8.32
2022-10-14T17:41:34.711Z,8.50
2022-10-14T17:44:02.325Z,8.32
2022-10-14T17:46:31.513Z,8.43
2022-10-14T17:49:01.418Z,8.82
2022-10-14T17:51:29.661Z,8.05
2022-10-14T17:53:59.090Z,9.43
2022-10-14T17:56:27.683Z,8.52
2022-10-14T17:58:55.552Z,8.18
2022-10-14T18:01:37.482Z,8.20
2022-10-14T18:04:12.728Z,8.13
2022-10-14T18:06:41.284Z,8.75
2022-10-14T18:09:10.489Z,8.65
2022-10-14T18:12:07.121Z,8.50
2022-10-14T18:14:28.773Z,8.98
2022-10-14T18:16:56.307Z,9.10
2022-10-14T18:19:25.149Z,8.65
2022-10-14T18:21:52.929Z,8.88
2022-10-14T18:24:20.672Z,8.13
2022-10-14T18:26:50.614Z,7.95
2022-10-14T18:29:18.348Z,8.23
2022-10-14T18:31:45.894Z,8.75
2022-10-14T18:34:13.984Z,8.95
2022-10-14T18:36:42.826Z,10.50
2022-10-14T18:39:12.894Z,9.23
2022-10-14T18:41:41.779Z,9.15
2022-10-14T18:44:09.288Z,9.85
2022-10-14T18:46:38.352Z,8.60
2022-10-14T18:49:07.670Z,9.35
2022-10-14T18:51:37.398Z,9.43
2022-10-14T18:54:10.087Z,11.40
2022-10-14T18:56:39.194Z,12.38
2022-10-14T18:59:08.999Z,11.30
2022-10-14T19:01:37.713Z,11.27
2022-10-14T19:04:07.154Z,11.50
2022-10-14T19:06:34.848Z,10.88
2022-10-14T19:09:03.363Z,11.63
2022-10-14T19:11:34.137Z,12.13
2022-10-14T19:14:03.689Z,10.50
2022-10-14T19:16:33.072Z,9.48
2022-10-14T19:19:03.758Z,10.73
2022-10-14T19:21:32.093Z,9.35
2022-10-14T19:24:01.359Z,9.50
2022-10-14T19:26:33.602Z,8.68
2022-10-14T19:29:04.309Z,7.97
2022-10-14T19:31:35.929Z,8.98
2022-10-14T19:34:06.600Z,8.43
2022-10-14T19:36:36.558Z,8.40
2022-10-14T19:39:05.817Z,7.90
2022-10-14T19:41:38.384Z,8.82
2022-10-14T19:44:06.084Z,8.43
2022-10-14T19:46:33.632Z,7.53
2022-10-14T19:49:04.083Z,8.80
2022-10-14T19:51:32.358Z,8.23
2022-10-14T19:54:00.217Z,8.63
2022-10-14T19:56:28.772Z,8.07
2022-10-14T19:58:59.681Z,8.10
2022-10-14T20:01:30.346Z,8.02
2022-10-14T20:04:00.531Z,7.45
2022-10-14T20:06:31.223Z,6.82
2022-10-14T20:08:58.806Z,7.53
2022-10-14T20:11:26.481Z,7.82
2022-10-14T20:13:53.986Z,6.90
2022-10-14T20:16:22.886Z,6.85
2022-10-14T20:18:50.465Z,7.18
2022-10-14T20:21:18.037Z,6.65
2022-10-14T20:23:46.127Z,7.68
2022-10-14T20:26:16.235Z,6.47
2022-10-14T20:28:44.132Z,5.90
2022-10-14T20:31:13.281Z,6.47
2022-10-14T20:33:42.482Z,6.50
2022-10-14T20:36:13.440Z,6.60
2022-10-14T20:38:41.831Z,7.28
2022-10-14T20:41:13.257Z,7.10
2022-10-14T20:43:41.663Z,7.30
2022-10-14T20:46:09.772Z,7.15
2022-10-14T20:48:38.280Z,7.22
2022-10-14T20:51:08.315Z,7.07
2022-10-14T20:53:36.202Z,7.18
2022-10-14T20:56:04.812Z,7.07
2022-10-14T20:58:32.665Z,6.90
2022-10-14T21:01:08.739Z,6.80
2022-10-14T21:03:36.497Z,7.75
2022-10-14T21:06:05.290Z,7.22
2022-10-14T21:08:34.695Z,7.57
2022-10-14T21:11:03.583Z,7.20
2022-10-14T21:13:32.285Z,7.88
2022-10-14T21:15:59.803Z,7.97
2022-10-14T21:18:27.858Z,7.55
2022-10-14T21:20:55.378Z,7.00
2022-10-14T21:23:23.038Z,7.72
2022-10-14T21:25:57.397Z,6.30
2022-10-14T21:28:25.230Z,6.63
2022-10-14T21:30:52.868Z,6.63
2022-10-14T21:33:20.529Z,6.18
2022-10-14T21:35:48.107Z,6.40
2022-10-14T21:38:15.727Z,6.38
2022-10-14T21:40:43.227Z,6.13
2022-10-14T21:43:12.680Z,6.10
2022-10-14T21:45:40.241Z,6.15
2022-10-14T21:48:07.760Z,6.30
2022-10-14T21:50:35.315Z,6.30
2022-10-14T21:53:02.947Z,5.97
2022-10-14T21:55:30.436Z,6.40
2022-10-14T21:57:58.174Z,5.88
2022-10-14T22:00:27.113Z,6.35
2022-10-14T22:02:55.110Z,5.82
2022-10-14T22:05:23.146Z,5.68
2022-10-14T22:07:50.678Z,5.60
2022-10-14T22:10:36.120Z,6.00
2022-10-14T22:13:03.721Z,5.35
2022-10-14T22:15:32.549Z,6.03
2022-10-14T22:18:00.079Z,5.72
2022-10-14T22:20:27.670Z,6.47
2022-10-14T22:22:55.447Z,5.85
2022-10-14T22:25:23.025Z,5.93
2022-10-14T22:27:50.620Z,6.20
2022-10-14T22:30:18.422Z,6.30
2022-10-14T22:32:47.399Z,6.15
2022-10-14T22:35:14.986Z,6.10
2022-10-14T22:37:42.577Z,6.13
2022-10-14T22:40:11.570Z,6.68
2022-10-14T22:42:42.127Z,6.78
2022-10-14T22:45:11.340Z,6.43
2022-10-14T22:47:39.090Z,7.63
2022-10-14T22:50:08.997Z,7.32
2022-10-14T22:52:36.895Z,6.68
2022-10-14T22:55:04.812Z,8.07
2022-10-14T22:57:32.415Z,6.85
2022-10-14T23:00:00.343Z,7.32
2022-10-14T23:02:28.389Z,7.50
2022-10-14T23:04:55.961Z,7.75
2022-10-14T23:07:25.364Z,6.60
2022-10-14T23:09:52.848Z,7.88
2022-10-14T23:12:20.659Z,8.25
2022-10-14T23:14:48.444Z,7.00
2022-10-14T23:17:16.010Z,6.90
2022-10-14T23:19:43.554Z,7.18
2022-10-14T23:22:11.138Z,6.80
2022-10-14T23:24:40.399Z,7.63
2022-10-14T23:27:07.943Z,6.85
2022-10-14T23:29:35.506Z,8.68
2022-10-14T23:32:03.763Z,8.27
2022-10-14T23:34:31.414Z,7.40
2022-10-14T23:36:58.973Z,7.47
2022-10-14T23:39:26.595Z,8.20
2022-10-14T23:41:55.509Z,6.97
2022-10-14T23:44:23.104Z,8.23
2022-10-14T23:46:51.068Z,7.95
2022-10-14T23:49:25.987Z,7.97
2022-10-14T23:51:54.327Z,10.70
2022-10-14T23:54:21.945Z,8.52
2022-10-14T23:56:49.469Z,8.50
2022-10-14T23:59:18.476Z,8.70
